Big Bear Station Historical Data
Daily Summary for January 1, 2019 Units:  English    Metric   Both
Next Day »
Daily Weekly Monthly Yearly Custom
  High: Low: Average:
Temperature: 25.0 °F 12.4 °F 17.9 °F
Dew Point: 6.3 °F -0.7 °F 3.3 °F
Humidity: 68% 32% 53%
Wind Speed: 10.4mph 0.0mph 3mph
Wind Gust: -999.0mph - -
Wind- - WSW
Pressure: 23.43 in 23.30 in -
Precipitation: 0.00 in    
Historical Graphs
 
 
Tabular Data for January 1, 2019
Time Temperature Dew Point Pressure Wind Wind Speed Wind Gust Humidity Rainfall Rate (Hourly)
00:01 17.1 °F 5.6 °F 23.31 in NNE 1.7 mph -999.0 mph 60% 0.00 in
00:16 16.7 °F 5.9 °F 23.31 in Calm   -999.0 mph 62% 0.00 in
00:31 16.3 °F 4.8 °F 23.31 in ESE 1.7 mph -999.0 mph 60% 0.00 in
00:46 16.2 °F 4.7 °F 23.30 in West 5.3 mph -999.0 mph 60% 0.00 in
01:02 16.2 °F 5.1 °F 23.31 in SW 3.2 mph -999.0 mph 61% 0.00 in
01:17 16.3 °F 5.2 °F 23.31 in Calm   -999.0 mph 61% 0.00 in
01:32 16.0 °F 4.9 °F 23.31 in NW 4.2 mph -999.0 mph 61% 0.00 in
01:47 15.6 °F 4.9 °F 23.31 in WNW 4.2 mph -999.0 mph 62% 0.00 in
02:03 15.4 °F 5.0 °F 23.32 in Calm   -999.0 mph 63% 0.00 in
02:18 15.4 °F 5.0 °F 23.32 in SSE 2.2 mph -999.0 mph 63% 0.00 in
02:33 14.9 °F 4.9 °F 23.32 in Calm   -999.0 mph 64% 0.00 in
02:48 14.7 °F 4.4 °F 23.32 in NNW 4.7 mph -999.0 mph 63% 0.00 in
03:04 14.4 °F 4.1 °F 23.33 in Calm   -999.0 mph 63% 0.00 in
03:19 14.0 °F 4.1 °F 23.33 in WNW 3.7 mph -999.0 mph 64% 0.00 in
03:35 13.8 °F 4.2 °F 23.33 in Calm   -999.0 mph 65% 0.00 in
03:50 13.3 °F 4.4 °F 23.34 in NW 2.7 mph -999.0 mph 67% 0.00 in
04:05 13.1 °F 4.5 °F 23.34 in Calm   -999.0 mph 68% 0.00 in
04:20 13.8 °F 3.9 °F 23.34 in Calm   -999.0 mph 64% 0.00 in
04:35 13.6 °F 3.7 °F 23.34 in Calm   -999.0 mph 64% 0.00 in
04:51 13.6 °F 4.0 °F 23.35 in SW 3.7 mph -999.0 mph 65% 0.00 in
05:06 13.5 °F 4.2 °F 23.35 in Calm   -999.0 mph 66% 0.00 in
05:21 12.7 °F 4.1 °F 23.35 in Calm   -999.0 mph 68% 0.00 in
05:36 12.7 °F 3.8 °F 23.35 in Calm   -999.0 mph 67% 0.00 in
05:51 12.9 °F 4.0 °F 23.36 in SSE 1.7 mph -999.0 mph 67% 0.00 in
06:07 13.1 °F 3.5 °F 23.36 in Calm   -999.0 mph 65% 0.00 in
06:22 13.5 °F 3.6 °F 23.36 in NNW 1.7 mph -999.0 mph 64% 0.00 in
06:37 12.9 °F 3.3 °F 23.37 in Calm   -999.0 mph 65% 0.00 in
06:52 12.4 °F 3.5 °F 23.37 in Calm   -999.0 mph 67% 0.00 in
07:08 13.3 °F 4.1 °F 23.37 in WSW 1.1 mph -999.0 mph 66% 0.00 in
07:23 13.5 °F 3.6 °F 23.37 in SE 1.7 mph -999.0 mph 64% 0.00 in
07:38 13.5 °F 3.6 °F 23.39 in Calm   -999.0 mph 64% 0.00 in
07:53 14.2 °F 4.2 °F 23.39 in Calm   -999.0 mph 64% 0.00 in
08:08 14.5 °F 3.8 °F 23.39 in Calm   -999.0 mph 62% 0.00 in
08:24 15.1 °F 3.0 °F 23.40 in NNW 1.7 mph -999.0 mph 58% 0.00 in
08:39 15.4 °F 3.6 °F 23.40 in NW 4.2 mph -999.0 mph 59% 0.00 in
08:55 16.3 °F 3.3 °F 23.41 in West 4.2 mph -999.0 mph 56% 0.00 in
09:10 16.9 °F 3.9 °F 23.41 in ESE 1.7 mph -999.0 mph 56% 0.00 in
09:26 17.4 °F 3.6 °F 23.42 in NW 3.7 mph -999.0 mph 54% 0.00 in
09:41 18.0 °F 3.7 °F 23.41 in West 6.3 mph -999.0 mph 53% 0.00 in
09:56 18.9 °F 4.6 °F 23.41 in Calm   -999.0 mph 53% 0.00 in
10:11 19.2 °F 4.0 °F 23.41 in SE 1.7 mph -999.0 mph 51% 0.00 in
10:26 19.9 °F 4.2 °F 23.41 in NW 7.3 mph -999.0 mph 50% 0.00 in
10:42 20.7 °F 3.2 °F 23.41 in West 5.8 mph -999.0 mph 46% 0.00 in
10:57 20.8 °F 3.3 °F 23.40 in North 3.2 mph -999.0 mph 46% 0.00 in
11:12 20.5 °F 3.9 °F 23.40 in NW 7.8 mph -999.0 mph 48% 0.00 in
11:27 20.7 °F 4.1 °F 23.40 in NW 10.4 mph -999.0 mph 48% 0.00 in
11:43 20.5 °F 5.6 °F 23.38 in NW 8.9 mph -999.0 mph 52% 0.00 in
11:58 21.0 °F 4.8 °F 23.38 in NW 7.3 mph -999.0 mph 49% 0.00 in
12:13 21.2 °F 6.3 °F 23.37 in NW 7.8 mph -999.0 mph 52% 0.00 in
12:28 22.8 °F 5.6 °F 23.36 in NW 8.3 mph -999.0 mph 47% 0.00 in
12:44 23.9 °F 4.1 °F 23.36 in SSW 6.8 mph -999.0 mph 42% 0.00 in
12:59 23.2 °F 4.5 °F 23.35 in NNW 8.3 mph -999.0 mph 44% 0.00 in
13:14 24.1 °F 4.3 °F 23.35 in NNW 3.2 mph -999.0 mph 42% 0.00 in
13:30 24.4 °F 3.5 °F 23.34 in WNW 7.8 mph -999.0 mph 40% 0.00 in
13:46 24.6 °F 1.4 °F 23.35 in West 7.3 mph -999.0 mph 36% 0.00 in
14:02 25.0 °F -0.7 °F 23.35 in NNE 6.3 mph -999.0 mph 32% 0.00 in
14:17 24.8 °F -0.3 °F 23.36 in ENE 3.7 mph -999.0 mph 33% 0.00 in
14:32 23.7 °F 0.0 °F 23.37 in East 4.7 mph -999.0 mph 35% 0.00 in
14:48 22.8 °F 4.6 °F 23.37 in NW 6.3 mph -999.0 mph 45% 0.00 in
15:03 22.1 °F 4.0 °F 23.39 in NW 3.7 mph -999.0 mph 45% 0.00 in
15:18 21.6 °F 4.9 °F 23.39 in NW 2.2 mph -999.0 mph 48% 0.00 in
15:33 21.0 °F 3.4 °F 23.39 in WNW 2.7 mph -999.0 mph 46% 0.00 in
15:48 21.0 °F 3.0 °F 23.39 in Calm   -999.0 mph 45% 0.00 in
16:04 20.7 °F 3.2 °F 23.40 in Calm   -999.0 mph 46% 0.00 in
16:19 19.8 °F 3.7 °F 23.40 in NW 6.3 mph -999.0 mph 49% 0.00 in
16:34 18.9 °F 4.2 °F 23.40 in Calm   -999.0 mph 52% 0.00 in
16:49 18.1 °F 3.0 °F 23.41 in WNW 4.2 mph -999.0 mph 51% 0.00 in
17:04 18.3 °F 1.4 °F 23.40 in Calm   -999.0 mph 47% 0.00 in
17:20 19.0 °F 2.5 °F 23.40 in WNW 3.2 mph -999.0 mph 48% 0.00 in
17:35 19.8 °F 1.4 °F 23.40 in WNW 4.7 mph -999.0 mph 44% 0.00 in
17:50 20.1 °F 2.1 °F 23.40 in NNW 3.2 mph -999.0 mph 45% 0.00 in
18:05 20.3 °F 1.3 °F 23.40 in NE 4.7 mph -999.0 mph 43% 0.00 in
18:20 19.9 °F 0.0 °F 23.40 in NNW 3.2 mph -999.0 mph 41% 0.00 in
18:36 19.9 °F 0.0 °F 23.40 in NNE 2.2 mph -999.0 mph 41% 0.00 in
18:51 19.6 °F 0.2 °F 23.40 in Calm   -999.0 mph 42% 0.00 in
19:06 19.6 °F 1.2 °F 23.40 in NNW 2.7 mph -999.0 mph 44% 0.00 in
19:22 19.6 °F 1.2 °F 23.40 in SSW 3.7 mph -999.0 mph 44% 0.00 in
19:37 19.8 °F 1.4 °F 23.40 in ESE 2.2 mph -999.0 mph 44% 0.00 in
19:52 18.3 °F 1.9 °F 23.41 in SW 4.7 mph -999.0 mph 48% 0.00 in
20:07 18.1 °F 2.1 °F 23.42 in SE 3.7 mph -999.0 mph 49% 0.00 in
20:22 18.0 °F 2.0 °F 23.41 in SW 3.7 mph -999.0 mph 49% 0.00 in
20:38 18.3 °F 1.4 °F 23.41 in NNW 2.2 mph -999.0 mph 47% 0.00 in
20:53 19.0 °F 0.6 °F 23.42 in NE 4.7 mph -999.0 mph 44% 0.00 in
21:08 18.9 °F 3.3 °F 23.42 in SSE 3.7 mph -999.0 mph 50% 0.00 in
21:23 18.5 °F 2.1 °F 23.42 in SSW 4.2 mph -999.0 mph 48% 0.00 in
21:39 17.2 °F 2.6 °F 23.42 in North 2.2 mph -999.0 mph 52% 0.00 in
21:54 16.9 °F 2.3 °F 23.42 in South 2.7 mph -999.0 mph 52% 0.00 in
22:09 16.3 °F 2.9 °F 23.42 in South 1.7 mph -999.0 mph 55% 0.00 in
22:24 16.7 °F 2.5 °F 23.42 in Calm   -999.0 mph 53% 0.00 in
22:39 16.7 °F 2.5 °F 23.43 in Calm   -999.0 mph 53% 0.00 in
22:55 18.1 °F 0.8 °F 23.42 in ESE 2.2 mph -999.0 mph 46% 0.00 in
23:10 18.7 °F 2.2 °F 23.43 in SSE 2.2 mph -999.0 mph 48% 0.00 in
23:25 17.8 °F 3.1 °F 23.43 in SSE 4.7 mph -999.0 mph 52% 0.00 in
23:40 18.1 °F 1.2 °F 23.43 in South 2.2 mph -999.0 mph 47% 0.00 in
23:55 18.1 °F 1.2 °F 23.43 in SE 2.2 mph -999.0 mph 47% 0.00 in
Big Bear CA Weather